createdAt,value
2022-07-29T00:00:02.327Z,0.60
2022-07-29T00:02:29.766Z,0.73
2022-07-29T00:04:56.461Z,0.50
2022-07-29T00:07:23.206Z,0.55
2022-07-29T00:09:51.753Z,0.57
2022-07-29T00:12:21.449Z,0.40
2022-07-29T00:14:53.564Z,0.40
2022-07-29T00:17:20.317Z,0.47
2022-07-29T00:19:47.081Z,0.45
2022-07-29T00:22:13.840Z,0.40
2022-07-29T00:24:40.599Z,0.47
2022-07-29T00:27:07.709Z,0.90
2022-07-29T00:29:35.084Z,0.50
2022-07-29T00:32:03.196Z,0.32
2022-07-29T00:34:49.587Z,0.35
2022-07-29T00:37:16.580Z,0.40
2022-07-29T00:39:43.459Z,0.60
2022-07-29T00:42:10.886Z,0.80
2022-07-29T00:44:39.385Z,0.73
2022-07-29T00:47:07.432Z,0.68
2022-07-29T00:49:35.420Z,0.50
2022-07-29T00:52:06.375Z,0.50
2022-07-29T00:54:35.067Z,0.50
2022-07-29T00:57:02.771Z,0.88
2022-07-29T00:59:34.386Z,0.52
2022-07-29T01:02:03.348Z,0.40
2022-07-29T01:04:30.907Z,0.60
2022-07-29T01:06:58.095Z,0.50
2022-07-29T01:09:42.086Z,0.80
2022-07-29T01:12:20.152Z,0.70
2022-07-29T01:14:48.899Z,0.52
2022-07-29T01:17:24.374Z,0.50
2022-07-29T01:20:02.517Z,0.53
2022-07-29T01:23:01.446Z,0.50
2022-07-29T01:25:35.875Z,0.47
2022-07-29T01:28:24.736Z,0.50
2022-07-29T01:30:55.795Z,0.60
2022-07-29T01:33:44.871Z,0.60
2022-07-29T01:36:15.826Z,0.40
2022-07-29T01:38:46.549Z,0.57
2022-07-29T01:41:18.832Z,1.38
2022-07-29T01:44:08.985Z,0.50
2022-07-29T01:46:40.381Z,0.80
2022-07-29T01:49:15.355Z,0.75
2022-07-29T01:51:51.354Z,0.70
2022-07-29T01:54:31.795Z,0.60
2022-07-29T01:57:01.416Z,0.90
2022-07-29T01:59:29.985Z,0.60
2022-07-29T02:02:00.290Z,0.85
2022-07-29T02:04:30.417Z,0.52
2022-07-29T02:07:02.858Z,0.60
2022-07-29T02:09:31.656Z,0.50
2022-07-29T02:12:00.691Z,0.80
2022-07-29T02:14:32.258Z,0.52
2022-07-29T02:17:01.665Z,0.68
2022-07-29T02:19:30.560Z,1.33
2022-07-29T02:21:59.842Z,0.75
2022-07-29T02:24:27.678Z,0.60
2022-07-29T02:26:57.573Z,0.70
2022-07-29T02:29:27.324Z,1.02
2022-07-29T02:31:56.481Z,0.73
2022-07-29T02:34:24.560Z,0.80
2022-07-29T02:36:52.749Z,0.70
2022-07-29T02:39:20.592Z,0.90
2022-07-29T02:41:53.947Z,0.60
2022-07-29T02:44:23.108Z,0.80
2022-07-29T02:47:25.152Z,0.90
2022-07-29T02:49:56.832Z,0.80
2022-07-29T02:52:38.946Z,0.68
2022-07-29T02:55:16.868Z,0.70
2022-07-29T02:57:55.987Z,0.82
2022-07-29T03:00:28.033Z,0.93
2022-07-29T03:02:57.660Z,0.87
2022-07-29T03:05:25.620Z,1.23
2022-07-29T03:08:05.105Z,0.90
2022-07-29T03:10:32.936Z,0.70
2022-07-29T03:13:01.253Z,0.80
2022-07-29T03:15:28.624Z,1.30
2022-07-29T03:17:56.745Z,0.80
2022-07-29T03:20:23.685Z,0.85
2022-07-29T03:22:51.047Z,0.95
2022-07-29T03:25:19.974Z,0.80
2022-07-29T03:27:47.804Z,0.83
2022-07-29T03:30:18.299Z,0.90
2022-07-29T03:32:48.881Z,0.90
2022-07-29T03:35:17.576Z,0.82
2022-07-29T03:37:45.294Z,0.90
2022-07-29T03:40:18.428Z,0.97
2022-07-29T03:42:46.964Z,0.85
2022-07-29T03:45:18.636Z,1.17
2022-07-29T03:47:55.803Z,0.90
2022-07-29T03:50:26.428Z,0.82
2022-07-29T03:52:53.552Z,0.93
2022-07-29T03:55:20.548Z,1.17
2022-07-29T03:57:49.106Z,1.15
2022-07-29T04:00:18.884Z,0.80
2022-07-29T04:02:50.087Z,0.82
2022-07-29T04:05:18.189Z,0.70
2022-07-29T04:07:46.580Z,0.70
2022-07-29T04:10:13.579Z,0.75
2022-07-29T04:12:40.338Z,0.98
2022-07-29T04:15:07.706Z,0.70
2022-07-29T04:17:34.572Z,0.80
2022-07-29T04:20:01.240Z,0.90
2022-07-29T04:22:27.969Z,1.08
2022-07-29T04:24:54.642Z,1.38
2022-07-29T04:27:21.609Z,0.90
2022-07-29T04:29:56.624Z,1.00
2022-07-29T04:32:24.982Z,1.10
2022-07-29T04:34:52.085Z,0.90
2022-07-29T04:37:18.843Z,0.90
2022-07-29T04:39:45.486Z,0.95
2022-07-29T04:42:12.241Z,0.73
2022-07-29T04:44:43.044Z,1.40
2022-07-29T04:47:10.203Z,1.05
2022-07-29T04:49:39.596Z,0.90
2022-07-29T04:52:07.076Z,0.80
2022-07-29T04:54:34.206Z,0.80
2022-07-29T04:57:00.956Z,0.80
2022-07-29T04:59:28.192Z,0.70
2022-07-29T05:01:55.175Z,0.90
2022-07-29T05:04:22.089Z,0.90
2022-07-29T05:06:49.310Z,0.80
2022-07-29T05:09:16.078Z,0.80
2022-07-29T05:11:42.965Z,0.70
2022-07-29T05:14:09.702Z,0.95
2022-07-29T05:16:36.355Z,0.80
2022-07-29T05:19:03.105Z,0.90
2022-07-29T05:21:29.763Z,0.80
2022-07-29T05:23:56.390Z,0.88
2022-07-29T05:26:23.262Z,1.13
2022-07-29T05:28:50.135Z,0.80
2022-07-29T05:31:16.954Z,0.80
2022-07-29T05:33:43.774Z,0.70
2022-07-29T05:36:10.534Z,1.02
2022-07-29T05:38:37.512Z,1.08
2022-07-29T05:41:05.486Z,1.10
2022-07-29T05:43:32.853Z,1.20
2022-07-29T05:45:59.663Z,1.23
2022-07-29T05:48:26.535Z,1.50
2022-07-29T05:50:53.362Z,0.82
2022-07-29T05:53:20.803Z,0.98
2022-07-29T05:55:49.198Z,1.13
2022-07-29T05:58:16.161Z,1.20
2022-07-29T06:00:43.161Z,1.10
2022-07-29T06:03:09.943Z,0.80
2022-07-29T06:05:36.918Z,1.00
2022-07-29T06:08:04.044Z,1.08
2022-07-29T06:10:30.697Z,0.82
2022-07-29T06:12:57.552Z,1.20
2022-07-29T06:15:24.313Z,0.75
2022-07-29T06:17:59.274Z,1.02
2022-07-29T06:20:32.518Z,0.80
2022-07-29T06:23:00.210Z,0.88
2022-07-29T06:25:30.224Z,0.90
2022-07-29T06:27:57.436Z,1.00
2022-07-29T06:30:24.224Z,1.20
2022-07-29T06:32:50.937Z,0.60
2022-07-29T06:35:41.090Z,0.88
2022-07-29T06:38:06.355Z,1.15
2022-07-29T06:41:07.202Z,1.48
2022-07-29T06:43:50.546Z,0.90
2022-07-29T06:46:20.937Z,1.40
2022-07-29T06:48:48.771Z,2.90
2022-07-29T06:51:17.340Z,1.05
2022-07-29T06:54:00.071Z,1.63
2022-07-29T06:56:31.701Z,0.93
2022-07-29T06:58:58.844Z,0.80
2022-07-29T07:01:25.810Z,1.35
2022-07-29T07:03:52.718Z,0.93
2022-07-29T07:06:19.480Z,0.75
2022-07-29T07:08:46.150Z,1.05
2022-07-29T07:11:13.004Z,1.00
2022-07-29T07:13:39.639Z,1.58
2022-07-29T07:16:06.632Z,0.88
2022-07-29T07:18:33.392Z,0.90
2022-07-29T07:21:00.148Z,1.83
2022-07-29T07:23:26.918Z,1.40
2022-07-29T07:25:53.786Z,1.27
2022-07-29T07:28:24.498Z,1.02
2022-07-29T07:30:52.694Z,0.93
2022-07-29T07:33:19.817Z,1.20
2022-07-29T07:35:46.580Z,1.05
2022-07-29T07:38:13.342Z,0.80
2022-07-29T07:40:40.099Z,1.08
2022-07-29T07:43:06.990Z,1.23
2022-07-29T07:45:34.219Z,1.13
2022-07-29T07:48:01.218Z,1.40
2022-07-29T07:50:27.970Z,0.83
2022-07-29T07:52:58.725Z,1.42
2022-07-29T07:55:26.899Z,0.70
2022-07-29T07:57:54.245Z,1.13
2022-07-29T08:00:22.978Z,1.00
2022-07-29T08:02:51.531Z,1.13
2022-07-29T08:05:19.262Z,0.65
2022-07-29T08:07:49.079Z,0.90
2022-07-29T08:10:37.944Z,1.13
2022-07-29T08:13:05.756Z,1.23
2022-07-29T08:15:32.514Z,0.77
2022-07-29T08:17:59.271Z,1.10
2022-07-29T08:20:26.513Z,1.38
2022-07-29T08:22:54.599Z,0.63
2022-07-29T08:25:21.724Z,0.90
2022-07-29T08:27:49.008Z,0.93
2022-07-29T08:30:16.184Z,0.98
2022-07-29T08:32:53.872Z,1.15
2022-07-29T08:35:25.544Z,1.40
2022-07-29T08:37:53.259Z,0.90
2022-07-29T08:40:32.013Z,0.93
2022-07-29T08:42:59.765Z,1.10
2022-07-29T08:45:27.660Z,1.00
2022-07-29T08:47:54.571Z,1.10
2022-07-29T08:50:21.347Z,0.95
2022-07-29T08:52:50.515Z,1.20
2022-07-29T08:55:21.526Z,1.27
2022-07-29T08:57:54.182Z,1.35
2022-07-29T09:00:23.728Z,0.98
2022-07-29T09:02:57.086Z,1.00
2022-07-29T09:05:25.883Z,0.93
2022-07-29T09:07:53.256Z,1.55
2022-07-29T09:10:20.120Z,0.90
2022-07-29T09:12:47.244Z,1.00
2022-07-29T09:15:13.999Z,0.80
2022-07-29T09:17:50.739Z,1.23
2022-07-29T09:20:23.358Z,1.25
2022-07-29T09:22:51.802Z,0.70
2022-07-29T09:25:37.999Z,0.95
2022-07-29T09:28:13.029Z,1.15
2022-07-29T09:30:55.158Z,0.63
2022-07-29T09:33:23.829Z,1.00
2022-07-29T09:36:04.056Z,0.70
2022-07-29T09:38:31.047Z,0.60
2022-07-29T09:41:05.783Z,0.63
2022-07-29T09:43:33.181Z,0.53
2022-07-29T09:46:15.201Z,1.00
2022-07-29T09:48:42.153Z,1.20
2022-07-29T09:51:24.227Z,0.93
2022-07-29T09:53:53.745Z,0.73
2022-07-29T09:56:20.575Z,0.70
2022-07-29T09:58:47.335Z,0.82
2022-07-29T10:01:14.162Z,0.80
2022-07-29T10:03:54.061Z,0.60
2022-07-29T10:06:20.838Z,0.70
2022-07-29T10:08:48.043Z,0.93
2022-07-29T10:11:19.242Z,0.85
2022-07-29T10:13:48.526Z,0.68
2022-07-29T10:16:17.542Z,0.82
2022-07-29T10:18:45.406Z,0.75
2022-07-29T10:21:22.442Z,0.73
2022-07-29T10:24:01.488Z,0.70
2022-07-29T10:26:29.556Z,1.02
2022-07-29T10:28:56.821Z,0.98
2022-07-29T10:31:58.747Z,0.80
2022-07-29T10:35:04.118Z,1.00
2022-07-29T10:37:58.225Z,0.80
2022-07-29T10:41:06.790Z,0.80
2022-07-29T10:43:39.268Z,0.60
2022-07-29T10:46:10.963Z,0.90
2022-07-29T10:49:15.402Z,0.73
2022-07-29T10:51:51.745Z,0.77
2022-07-29T10:54:19.219Z,1.20
2022-07-29T10:56:47.790Z,1.45
2022-07-29T10:59:21.571Z,1.40
2022-07-29T11:01:53.592Z,0.93
2022-07-29T11:04:47.041Z,1.10
2022-07-29T11:07:15.151Z,1.35
2022-07-29T11:09:42.243Z,1.15
2022-07-29T11:12:38.751Z,1.40
2022-07-29T11:15:18.121Z,1.30
2022-07-29T11:17:59.557Z,0.90
2022-07-29T11:20:33.118Z,1.33
2022-07-29T11:23:00.490Z,1.00
2022-07-29T11:25:42.405Z,0.80
2022-07-29T11:28:22.708Z,0.80
2022-07-29T11:30:51.596Z,0.80
2022-07-29T11:33:54.138Z,0.50
2022-07-29T11:36:19.201Z,0.65
2022-07-29T11:39:36.635Z,0.70
2022-07-29T11:42:32.273Z,0.70
2022-07-29T11:47:51.722Z,0.60
2022-07-29T11:50:32.260Z,1.10
2022-07-29T11:53:01.448Z,0.75
2022-07-29T11:55:38.615Z,0.90
2022-07-29T12:01:15.228Z,1.13
2022-07-29T12:03:43.722Z,0.70
2022-07-29T12:06:17.504Z,0.73
2022-07-29T12:07:02.364Z,0.77
2022-07-29T12:08:45.692Z,1.40
2022-07-29T12:11:22.815Z,1.10
2022-07-29T12:13:52.521Z,1.20
2022-07-29T12:16:26.049Z,0.80
2022-07-29T12:19:04.079Z,0.47
2022-07-29T12:21:53.645Z,0.60
2022-07-29T12:24:26.595Z,0.80
2022-07-29T12:27:00.695Z,0.88
2022-07-29T12:29:33.882Z,0.90
2022-07-29T12:32:04.647Z,1.50
2022-07-29T12:34:32.357Z,1.10
2022-07-29T12:36:59.236Z,0.90
2022-07-29T12:39:28.998Z,0.88
2022-07-29T12:42:04.562Z,0.80
2022-07-29T12:44:49.390Z,1.10
2022-07-29T12:47:17.172Z,0.80
2022-07-29T12:49:43.875Z,1.60
2022-07-29T12:52:26.706Z,1.60
2022-07-29T12:54:53.349Z,0.80
2022-07-29T12:57:20.511Z,1.10
2022-07-29T13:00:00.415Z,0.83
2022-07-29T13:02:27.600Z,1.33
2022-07-29T13:04:58.985Z,0.80
2022-07-29T13:07:55.916Z,0.85
2022-07-29T13:10:23.966Z,1.52
2022-07-29T13:13:04.729Z,0.80
2022-07-29T13:15:32.207Z,0.75
2022-07-29T13:17:59.086Z,0.73
2022-07-29T13:20:30.646Z,1.13
2022-07-29T13:22:59.448Z,1.10
2022-07-29T13:25:35.440Z,0.80
2022-07-29T13:28:02.083Z,0.75
2022-07-29T13:30:28.975Z,1.38
2022-07-29T13:32:56.201Z,1.80
2022-07-29T13:35:22.839Z,1.10
2022-07-29T13:37:49.598Z,1.27
2022-07-29T13:40:18.768Z,1.73
2022-07-29T13:42:45.636Z,0.80
2022-07-29T13:45:14.908Z,0.80
2022-07-29T13:47:46.004Z,1.35
2022-07-29T13:50:15.985Z,1.10
2022-07-29T13:52:42.745Z,1.58
2022-07-29T13:55:09.625Z,1.38
2022-07-29T13:57:36.650Z,1.40
2022-07-29T14:00:03.741Z,1.40
2022-07-29T14:02:30.406Z,0.50
2022-07-29T14:04:57.174Z,0.73
2022-07-29T14:07:24.380Z,1.90
2022-07-29T14:09:51.275Z,0.95
2022-07-29T14:12:18.494Z,1.27
2022-07-29T14:14:45.249Z,1.13
2022-07-29T14:17:14.207Z,1.08
2022-07-29T14:19:41.050Z,1.05
2022-07-29T14:22:09.003Z,1.27
2022-07-29T14:24:39.052Z,1.00
2022-07-29T14:27:07.151Z,1.37
2022-07-29T14:29:37.083Z,1.10
2022-07-29T14:32:06.292Z,0.70
2022-07-29T14:34:34.446Z,1.08
2022-07-29T14:37:01.195Z,1.10
2022-07-29T14:39:31.624Z,1.43
2022-07-29T14:41:59.625Z,1.35
2022-07-29T14:44:32.174Z,1.55
2022-07-29T14:47:07.875Z,2.10
2022-07-29T14:49:35.030Z,1.50
2022-07-29T14:52:01.911Z,2.03
2022-07-29T14:54:28.545Z,2.50
2022-07-29T14:56:58.184Z,1.50
2022-07-29T14:59:25.667Z,1.48
2022-07-29T15:01:52.506Z,1.63
2022-07-29T15:04:19.300Z,1.53
2022-07-29T15:06:45.937Z,1.80
2022-07-29T15:09:13.059Z,1.75
2022-07-29T15:11:39.813Z,2.08
2022-07-29T15:14:07.322Z,1.67
2022-07-29T15:16:37.248Z,1.83
2022-07-29T15:19:05.368Z,1.42
2022-07-29T15:21:32.146Z,1.25
2022-07-29T15:23:59.010Z,1.10
2022-07-29T15:26:26.853Z,1.15
2022-07-29T15:28:53.724Z,1.40
2022-07-29T15:31:20.520Z,1.08
2022-07-29T15:33:47.257Z,1.17
2022-07-29T15:36:35.753Z,1.10
2022-07-29T15:39:01.403Z,1.15
2022-07-29T15:41:28.162Z,1.43
2022-07-29T15:43:54.819Z,1.40
2022-07-29T15:46:40.271Z,0.85
2022-07-29T15:49:07.702Z,0.80
2022-07-29T15:51:34.630Z,1.10
2022-07-29T15:54:05.372Z,0.90
2022-07-29T15:56:32.477Z,1.48
2022-07-29T15:58:59.345Z,0.75
2022-07-29T16:01:28.193Z,1.40
2022-07-29T16:03:55.179Z,1.10
2022-07-29T16:06:22.261Z,0.77
2022-07-29T16:08:49.047Z,0.77
2022-07-29T16:11:16.143Z,0.77
2022-07-29T16:13:42.779Z,0.77
2022-07-29T16:16:09.594Z,1.13
2022-07-29T16:18:36.303Z,0.67
2022-07-29T16:21:03.291Z,0.68
2022-07-29T16:23:30.066Z,0.60
2022-07-29T16:26:00.161Z,0.50
2022-07-29T16:28:27.892Z,0.80
2022-07-29T16:30:54.653Z,0.50
2022-07-29T16:33:21.405Z,0.70
2022-07-29T16:35:48.067Z,0.93
2022-07-29T16:38:14.928Z,0.57
2022-07-29T16:40:42.180Z,0.60
2022-07-29T16:43:09.175Z,0.70
2022-07-29T16:45:43.915Z,0.60
2022-07-29T16:48:13.959Z,0.70
2022-07-29T16:50:41.551Z,0.70
2022-07-29T16:53:10.955Z,0.93
2022-07-29T16:55:38.432Z,1.17
2022-07-29T16:58:09.277Z,1.02
2022-07-29T17:00:36.064Z,0.70
2022-07-29T17:03:02.669Z,1.30
2022-07-29T17:05:29.574Z,0.70
2022-07-29T17:08:16.585Z,1.13
2022-07-29T17:10:43.342Z,0.95
2022-07-29T17:13:10.100Z,1.00
2022-07-29T17:15:36.888Z,0.95
2022-07-29T17:18:12.829Z,0.73
2022-07-29T17:20:41.777Z,1.30
2022-07-29T17:23:08.532Z,1.00
2022-07-29T17:25:35.293Z,0.73
2022-07-29T17:28:02.061Z,0.80
2022-07-29T17:30:29.787Z,1.17
2022-07-29T17:32:56.768Z,1.10
2022-07-29T17:35:41.888Z,1.30
2022-07-29T17:38:08.646Z,1.10
2022-07-29T17:40:35.283Z,1.30
2022-07-29T17:43:02.044Z,0.80
2022-07-29T17:45:49.103Z,0.77
2022-07-29T17:48:15.481Z,0.68
2022-07-29T17:50:42.261Z,0.70
2022-07-29T17:53:09.584Z,1.00
2022-07-29T17:55:45.114Z,0.85
2022-07-29T17:58:12.024Z,1.00
2022-07-29T18:00:39.403Z,1.00
2022-07-29T18:03:06.318Z,0.80
2022-07-29T18:05:33.587Z,0.85
2022-07-29T18:08:00.230Z,1.02
2022-07-29T18:10:27.224Z,0.53
2022-07-29T18:12:54.222Z,1.10
2022-07-29T18:15:20.983Z,1.20
2022-07-29T18:17:56.712Z,1.00
2022-07-29T18:20:25.788Z,0.73
2022-07-29T18:22:52.659Z,1.00
2022-07-29T18:25:19.537Z,0.70
2022-07-29T18:27:46.306Z,0.73
2022-07-29T18:30:15.050Z,1.17
2022-07-29T18:32:54.369Z,1.02
2022-07-29T18:35:29.014Z,1.10
2022-07-29T18:38:00.323Z,0.75
2022-07-29T18:40:29.969Z,1.30
2022-07-29T18:42:57.218Z,0.85
2022-07-29T18:45:28.736Z,1.33
2022-07-29T18:47:56.843Z,0.90
2022-07-29T18:50:28.795Z,1.42
2022-07-29T18:52:58.937Z,0.75
2022-07-29T18:55:26.377Z,1.10
2022-07-29T18:57:56.290Z,0.90
2022-07-29T19:00:24.552Z,1.55
2022-07-29T19:02:51.576Z,1.27
2022-07-29T19:05:18.786Z,1.20
2022-07-29T19:07:45.595Z,1.58
2022-07-29T19:10:13.676Z,1.45
2022-07-29T19:12:40.515Z,0.87
2022-07-29T19:15:08.154Z,1.40
2022-07-29T19:17:35.013Z,1.23
2022-07-29T19:20:02.342Z,1.08
2022-07-29T19:22:29.098Z,1.25
2022-07-29T19:24:55.855Z,1.43
2022-07-29T19:27:22.512Z,1.20
2022-07-29T19:29:49.383Z,1.17
2022-07-29T19:32:24.894Z,1.40
2022-07-29T19:35:11.224Z,1.52
2022-07-29T19:37:37.881Z,1.27
2022-07-29T19:40:06.407Z,1.52
2022-07-29T19:42:33.184Z,1.30
2022-07-29T19:45:00.164Z,1.20
2022-07-29T19:47:26.940Z,0.88
2022-07-29T19:49:53.695Z,1.60
2022-07-29T19:52:20.564Z,1.77
2022-07-29T19:54:47.459Z,1.80
2022-07-29T19:57:14.437Z,1.60
2022-07-29T19:59:41.347Z,2.10
2022-07-29T20:02:11.019Z,1.15
2022-07-29T20:04:39.029Z,1.17
2022-07-29T20:07:06.883Z,1.42
2022-07-29T20:09:33.998Z,1.70
2022-07-29T20:12:00.745Z,1.20
2022-07-29T20:14:27.637Z,1.50
2022-07-29T20:16:54.483Z,1.55
2022-07-29T20:19:21.620Z,1.35
2022-07-29T20:21:48.267Z,1.50
2022-07-29T20:24:15.027Z,1.90
2022-07-29T20:26:41.801Z,2.10
2022-07-29T20:29:09.185Z,2.33
2022-07-29T20:31:36.258Z,1.70
2022-07-29T20:34:03.157Z,2.10
2022-07-29T20:36:30.252Z,1.50
2022-07-29T20:38:57.487Z,2.30
2022-07-29T20:41:24.250Z,1.67
2022-07-29T20:43:51.127Z,1.95
2022-07-29T20:46:18.378Z,2.30
2022-07-29T20:48:45.789Z,1.90
2022-07-29T20:51:13.093Z,2.13
2022-07-29T20:53:40.926Z,2.38
2022-07-29T20:56:08.405Z,1.60
2022-07-29T20:58:36.275Z,1.60
2022-07-29T21:01:05.137Z,2.58
2022-07-29T21:03:32.638Z,2.00
2022-07-29T21:06:00.129Z,2.67
2022-07-29T21:08:26.900Z,3.05
2022-07-29T21:10:54.246Z,2.13
2022-07-29T21:13:22.448Z,1.95
2022-07-29T21:15:50.798Z,2.10
2022-07-29T21:18:27.583Z,1.23
2022-07-29T21:20:58.662Z,1.58
2022-07-29T21:23:26.512Z,1.60
2022-07-29T21:25:54.252Z,1.50
2022-07-29T21:28:26.867Z,2.22
2022-07-29T21:30:55.059Z,2.08
2022-07-29T21:33:21.892Z,2.53
2022-07-29T21:36:26.800Z,2.40
2022-07-29T21:38:36.335Z,2.63
2022-07-29T21:41:04.075Z,1.63
2022-07-29T21:43:31.289Z,2.28
2022-07-29T21:45:59.342Z,1.73
2022-07-29T21:48:28.175Z,1.77
2022-07-29T21:50:55.521Z,2.05
2022-07-29T21:53:23.009Z,2.97
2022-07-29T21:55:56.276Z,2.05
2022-07-29T21:58:24.723Z,2.08
2022-07-29T22:00:52.156Z,2.30
2022-07-29T22:03:18.916Z,1.67
2022-07-29T22:05:45.682Z,2.28
2022-07-29T22:08:13.033Z,2.80
2022-07-29T22:10:39.913Z,2.40
2022-07-29T22:13:07.412Z,1.65
2022-07-29T22:15:34.271Z,2.83
2022-07-29T22:18:01.150Z,2.15
2022-07-29T22:20:27.904Z,1.70
2022-07-29T22:22:54.903Z,2.33
2022-07-29T22:25:22.501Z,2.15
2022-07-29T22:27:49.497Z,1.65
2022-07-29T22:30:16.860Z,1.50
2022-07-29T22:32:43.619Z,1.42
2022-07-29T22:35:10.499Z,1.33
2022-07-29T22:37:37.253Z,1.70
2022-07-29T22:40:04.729Z,1.63
2022-07-29T22:42:31.495Z,1.40
2022-07-29T22:44:58.246Z,1.23
2022-07-29T22:47:38.934Z,1.40
2022-07-29T22:50:11.802Z,1.70
2022-07-29T22:52:38.681Z,1.75
2022-07-29T22:55:06.160Z,1.30
2022-07-29T22:57:32.918Z,1.80
2022-07-29T23:00:02.219Z,1.58
2022-07-29T23:02:29.222Z,2.17
2022-07-29T23:04:56.312Z,1.70
2022-07-29T23:07:23.441Z,2.00
2022-07-29T23:09:50.428Z,2.10
2022-07-29T23:12:17.681Z,2.03
2022-07-29T23:14:44.429Z,2.25
2022-07-29T23:17:12.186Z,2.10
2022-07-29T23:19:38.903Z,1.95
2022-07-29T23:22:05.543Z,1.60
2022-07-29T23:24:32.298Z,1.70
2022-07-29T23:26:59.268Z,1.73
2022-07-29T23:29:26.422Z,1.70
2022-07-29T23:31:53.174Z,2.15
2022-07-29T23:34:20.053Z,1.73
2022-07-29T23:36:46.810Z,1.70
2022-07-29T23:39:13.688Z,1.30
2022-07-29T23:41:41.055Z,1.52
2022-07-29T23:44:08.046Z,1.80
2022-07-29T23:46:34.861Z,1.83
2022-07-29T23:49:01.760Z,1.63
2022-07-29T23:51:29.329Z,1.90
2022-07-29T23:53:56.549Z,1.33
2022-07-29T23:56:23.757Z,1.35
2022-07-29T23:58:50.518Z,1.73
